createdAt,value
2024-02-22T00:00:38.670Z,728.00
2024-02-22T00:01:38.662Z,729.00
2024-02-22T00:02:38.622Z,730.00
2024-02-22T00:03:38.596Z,730.00
2024-02-22T00:04:38.671Z,728.00
2024-02-22T00:05:38.715Z,730.00
2024-02-22T00:06:38.620Z,730.00
2024-02-22T00:07:38.670Z,727.00
2024-02-22T00:08:38.602Z,725.00
2024-02-22T00:09:38.626Z,725.00
2024-02-22T00:10:38.671Z,725.00
2024-02-22T00:11:38.775Z,724.00
2024-02-22T00:12:38.630Z,721.00
2024-02-22T00:13:38.635Z,722.00
2024-02-22T00:14:38.613Z,725.00
2024-02-22T00:15:38.637Z,722.00
2024-02-22T00:16:38.675Z,722.00
2024-02-22T00:17:38.669Z,719.00
2024-02-22T00:18:38.662Z,720.00
2024-02-22T00:19:38.666Z,722.00
2024-02-22T00:20:38.609Z,722.00
2024-02-22T00:21:38.651Z,723.00
2024-02-22T00:22:38.688Z,724.00
2024-02-22T00:23:38.616Z,725.00
2024-02-22T00:24:38.616Z,725.00
2024-02-22T00:25:38.668Z,723.00
2024-02-22T00:26:38.614Z,723.00
2024-02-22T00:27:38.620Z,720.00
2024-02-22T00:28:38.663Z,719.00
2024-02-22T00:29:38.641Z,719.00
2024-02-22T00:30:38.645Z,718.00
2024-02-22T00:31:38.695Z,717.00
2024-02-22T00:32:38.671Z,720.00
2024-02-22T00:33:38.690Z,721.00
2024-02-22T00:34:38.801Z,720.00
2024-02-22T00:35:38.633Z,717.00
2024-02-22T00:36:38.623Z,715.00
2024-02-22T00:37:38.831Z,719.00
2024-02-22T00:38:38.670Z,720.00
2024-02-22T00:39:38.641Z,720.00
2024-02-22T00:40:38.666Z,717.00
2024-02-22T00:41:38.632Z,721.00
2024-02-22T00:42:38.647Z,719.00
2024-02-22T00:43:38.707Z,718.00
2024-02-22T00:44:38.637Z,719.00
2024-02-22T00:45:38.653Z,720.00
2024-02-22T00:46:38.696Z,719.00
2024-02-22T00:47:38.719Z,720.00
2024-02-22T00:48:38.796Z,719.00
2024-02-22T00:49:38.880Z,719.00
2024-02-22T00:50:38.937Z,719.00
2024-02-22T00:51:38.803Z,719.00
2024-02-22T00:52:38.822Z,718.00
2024-02-22T00:53:38.832Z,719.00
2024-02-22T00:54:38.873Z,719.00
2024-02-22T00:55:38.930Z,719.00
2024-02-22T00:56:38.930Z,720.00
2024-02-22T00:57:38.982Z,720.00
2024-02-22T00:58:39.076Z,720.00
2024-02-22T00:59:39.029Z,718.00
2024-02-22T01:00:39.187Z,717.00
2024-02-22T01:01:39.111Z,716.00
2024-02-22T01:02:39.160Z,716.00
2024-02-22T01:03:39.210Z,715.00
2024-02-22T01:04:39.316Z,715.00
2024-02-22T01:05:39.417Z,716.00
2024-02-22T01:06:39.257Z,716.00
2024-02-22T01:07:39.281Z,713.00
2024-02-22T01:08:39.252Z,712.00
2024-02-22T01:09:39.257Z,713.00
2024-02-22T01:10:39.352Z,713.00
2024-02-22T01:11:39.467Z,708.00
2024-02-22T01:12:39.328Z,707.00
2024-02-22T01:13:39.365Z,709.00
2024-02-22T01:14:39.336Z,711.00
2024-02-22T01:15:39.321Z,713.00
2024-02-22T01:16:39.352Z,714.00
2024-02-22T01:17:39.384Z,716.00
2024-02-22T01:18:39.404Z,718.00
2024-02-22T01:19:39.362Z,717.00
2024-02-22T01:20:39.378Z,716.00
2024-02-22T01:21:39.398Z,714.00
2024-02-22T01:22:39.389Z,712.00
2024-02-22T01:23:39.393Z,713.00
2024-02-22T01:24:39.406Z,713.00
2024-02-22T01:25:39.440Z,715.00
2024-02-22T01:26:39.417Z,715.00
2024-02-22T01:27:39.444Z,713.00
2024-02-22T01:28:39.477Z,711.00
2024-02-22T01:29:39.475Z,710.00
2024-02-22T01:30:39.455Z,709.00
2024-02-22T01:31:39.489Z,710.00
2024-02-22T01:32:42.171Z,708.00
2024-02-22T01:33:39.539Z,708.00
2024-02-22T01:34:39.546Z,705.00
2024-02-22T01:35:39.481Z,707.00
2024-02-22T01:36:39.486Z,707.00
2024-02-22T01:37:39.522Z,705.00
2024-02-22T01:38:39.475Z,704.00
2024-02-22T01:39:39.476Z,703.00
2024-02-22T01:40:39.502Z,703.00
2024-02-22T01:41:39.497Z,704.00
2024-02-22T01:42:39.497Z,705.00
2024-02-22T01:43:39.504Z,706.00
2024-02-22T01:44:39.488Z,705.00
2024-02-22T01:45:39.493Z,707.00
2024-02-22T01:46:39.515Z,707.00
2024-02-22T01:47:39.602Z,703.00
2024-02-22T01:48:39.590Z,702.00
2024-02-22T01:49:39.512Z,704.00
2024-02-22T01:50:39.509Z,705.00
2024-02-22T01:51:39.503Z,706.00
2024-02-22T01:52:39.533Z,704.00
2024-02-22T01:53:39.491Z,703.00
2024-02-22T01:54:39.512Z,704.00
2024-02-22T01:55:39.530Z,703.00
2024-02-22T01:56:39.489Z,703.00
2024-02-22T01:57:39.476Z,702.00
2024-02-22T01:58:39.504Z,702.00
2024-02-22T01:59:39.489Z,704.00
2024-02-22T02:00:39.508Z,704.00
2024-02-22T02:01:39.534Z,705.00
2024-02-22T02:02:39.489Z,704.00
2024-02-22T02:03:39.561Z,701.00
2024-02-22T02:04:39.514Z,702.00
2024-02-22T02:05:39.484Z,700.00
2024-02-22T02:06:39.513Z,700.00
2024-02-22T02:07:39.512Z,699.00
2024-02-22T02:08:39.488Z,698.00
2024-02-22T02:09:39.492Z,697.00
2024-02-22T02:10:39.523Z,694.00
2024-02-22T02:11:39.632Z,695.00
2024-02-22T02:12:39.503Z,691.00
2024-02-22T02:13:39.575Z,691.00
2024-02-22T02:14:39.489Z,693.00
2024-02-22T02:15:39.487Z,691.00
2024-02-22T02:16:39.572Z,690.00
2024-02-22T02:17:40.086Z,691.00
2024-02-22T02:18:39.571Z,691.00
2024-02-22T02:19:39.546Z,690.00
2024-02-22T02:20:39.495Z,691.00
2024-02-22T02:21:39.498Z,691.00
2024-02-22T02:22:39.607Z,694.00
2024-02-22T02:23:39.499Z,697.00
2024-02-22T02:24:39.496Z,698.00
2024-02-22T02:25:39.563Z,698.00
2024-02-22T02:26:39.645Z,697.00
2024-02-22T02:27:39.497Z,697.00
2024-02-22T02:28:39.560Z,696.00
2024-02-22T02:29:39.526Z,695.00
2024-02-22T02:30:39.512Z,695.00
2024-02-22T02:31:39.542Z,696.00
2024-02-22T02:32:39.604Z,696.00
2024-02-22T02:33:39.609Z,696.00
2024-02-22T02:34:39.553Z,698.00
2024-02-22T02:35:39.530Z,697.00
2024-02-22T02:36:39.520Z,698.00
2024-02-22T02:37:39.543Z,697.00
2024-02-22T02:38:39.532Z,697.00
2024-02-22T02:39:39.521Z,696.00
2024-02-22T02:40:39.585Z,695.00
2024-02-22T02:41:39.529Z,695.00
2024-02-22T02:42:39.518Z,693.00
2024-02-22T02:43:39.557Z,693.00
2024-02-22T02:44:39.509Z,693.00
2024-02-22T02:45:39.521Z,693.00
2024-02-22T02:46:39.556Z,690.00
2024-02-22T02:47:39.551Z,693.00
2024-02-22T02:48:39.546Z,689.00
2024-02-22T02:49:39.575Z,688.00
2024-02-22T02:50:39.513Z,688.00
2024-02-22T02:51:39.533Z,690.00
2024-02-22T02:52:39.543Z,689.00
2024-02-22T02:53:39.510Z,692.00
2024-02-22T02:54:39.512Z,695.00
2024-02-22T02:55:39.545Z,695.00
2024-02-22T02:56:39.529Z,694.00
2024-02-22T02:57:39.517Z,693.00
2024-02-22T02:58:39.555Z,691.00
2024-02-22T02:59:39.516Z,689.00
2024-02-22T03:00:39.513Z,689.00
2024-02-22T03:01:39.611Z,686.00
2024-02-22T03:02:39.520Z,685.00
2024-02-22T03:03:39.529Z,683.00
2024-02-22T03:04:39.635Z,682.00
2024-02-22T03:05:39.684Z,681.00
2024-02-22T03:06:39.586Z,677.00
2024-02-22T03:07:39.587Z,678.00
2024-02-22T03:08:39.530Z,678.00
2024-02-22T03:09:39.533Z,680.00
2024-02-22T03:10:39.586Z,680.00
2024-02-22T03:11:39.609Z,683.00
2024-02-22T03:12:39.545Z,682.00
2024-02-22T03:13:39.542Z,682.00
2024-02-22T03:14:39.587Z,683.00
2024-02-22T03:15:39.530Z,683.00
2024-02-22T03:16:39.658Z,683.00
2024-02-22T03:17:39.587Z,681.00
2024-02-22T03:18:39.607Z,678.00
2024-02-22T03:19:39.551Z,677.00
2024-02-22T03:20:39.550Z,677.00
2024-02-22T03:21:39.565Z,679.00
2024-02-22T03:22:39.582Z,681.00
2024-02-22T03:23:39.528Z,681.00
2024-02-22T03:24:39.540Z,680.00
2024-02-22T03:25:39.537Z,678.00
2024-02-22T03:26:39.550Z,681.00
2024-02-22T03:27:39.529Z,680.00
2024-02-22T03:28:41.005Z,679.00
2024-02-22T03:29:39.537Z,679.00
2024-02-22T03:30:39.541Z,681.00
2024-02-22T03:31:39.587Z,682.00
2024-02-22T03:32:39.593Z,684.00
2024-02-22T03:33:39.589Z,682.00
2024-02-22T03:34:39.590Z,682.00
2024-02-22T03:35:39.545Z,683.00
2024-02-22T03:36:39.553Z,686.00
2024-02-22T03:37:39.614Z,685.00
2024-02-22T03:38:39.546Z,686.00
2024-02-22T03:39:39.543Z,686.00
2024-02-22T03:40:39.610Z,685.00
2024-02-22T03:41:39.598Z,682.00
2024-02-22T03:42:39.574Z,685.00
2024-02-22T03:43:39.573Z,684.00
2024-02-22T03:44:39.543Z,685.00
2024-02-22T03:45:39.552Z,686.00
2024-02-22T03:46:39.590Z,689.00
2024-02-22T03:47:39.774Z,689.00
2024-02-22T03:48:39.626Z,687.00
2024-02-22T03:49:39.581Z,683.00
2024-02-22T03:50:39.553Z,679.00
2024-02-22T03:51:39.556Z,677.00
2024-02-22T03:52:39.664Z,675.00
2024-02-22T03:53:39.554Z,673.00
2024-02-22T03:54:39.566Z,674.00
2024-02-22T03:55:39.641Z,672.00
2024-02-22T03:56:39.556Z,670.00
2024-02-22T03:57:39.568Z,669.00
2024-02-22T03:58:39.612Z,668.00
2024-02-22T03:59:39.559Z,668.00
2024-02-22T04:00:39.591Z,665.00
2024-02-22T04:01:39.627Z,664.00
2024-02-22T04:02:39.562Z,664.00
2024-02-22T04:03:39.679Z,661.00
2024-02-22T04:04:39.693Z,662.00
2024-02-22T04:05:39.733Z,658.00
2024-02-22T04:06:40.282Z,656.00
2024-02-22T04:07:39.606Z,655.00
2024-02-22T04:08:39.584Z,653.00
2024-02-22T04:09:39.618Z,651.00
2024-02-22T04:10:39.646Z,648.00
2024-02-22T04:11:39.631Z,645.00
2024-02-22T04:12:39.583Z,643.00
2024-02-22T04:13:39.623Z,641.00
2024-02-22T04:14:39.602Z,643.00
2024-02-22T04:15:39.612Z,644.00
2024-02-22T04:16:39.585Z,643.00
2024-02-22T04:17:39.661Z,641.00
2024-02-22T04:18:39.654Z,642.00
2024-02-22T04:19:39.606Z,641.00
2024-02-22T04:20:39.578Z,642.00
2024-02-22T04:21:39.612Z,641.00
2024-02-22T04:22:39.651Z,643.00
2024-02-22T04:23:39.602Z,644.00
2024-02-22T04:24:39.572Z,643.00
2024-02-22T04:25:39.613Z,645.00
2024-02-22T04:26:39.606Z,643.00
2024-02-22T04:27:39.618Z,643.00
2024-02-22T04:28:39.624Z,643.00
2024-02-22T04:29:46.833Z,637.00
2024-02-22T04:30:46.828Z,639.00
2024-02-22T04:31:54.118Z,632.00
2024-02-22T04:32:54.135Z,627.00
2024-02-22T04:33:54.145Z,628.00
2024-02-22T04:34:54.167Z,629.00
2024-02-22T04:35:54.132Z,627.00
2024-02-22T04:36:54.069Z,625.00
2024-02-22T04:37:54.124Z,624.00
2024-02-22T04:38:54.182Z,625.00
2024-02-22T04:39:54.085Z,625.00
2024-02-22T04:40:54.150Z,623.00
2024-02-22T04:41:54.089Z,620.00
2024-02-22T04:42:54.077Z,619.00
2024-02-22T04:43:54.077Z,618.00
2024-02-22T04:44:54.076Z,618.00
2024-02-22T04:45:54.076Z,617.00
2024-02-22T04:46:54.103Z,616.00
2024-02-22T04:47:54.127Z,614.00
2024-02-22T04:48:54.169Z,612.00
2024-02-22T04:49:54.083Z,611.00
2024-02-22T04:50:54.106Z,611.00
2024-02-22T04:51:54.106Z,610.00
2024-02-22T04:52:54.138Z,610.00
2024-02-22T04:53:54.086Z,607.00
2024-02-22T04:54:54.098Z,606.00
2024-02-22T04:55:54.094Z,605.00
2024-02-22T04:56:54.084Z,603.00
2024-02-22T04:57:54.102Z,602.00
2024-02-22T04:58:54.113Z,600.00
2024-02-22T04:59:54.108Z,600.00
2024-02-22T05:00:54.162Z,600.00
2024-02-22T05:01:54.155Z,600.00
2024-02-22T05:02:54.082Z,602.00
2024-02-22T05:03:54.247Z,599.00
2024-02-22T05:04:54.241Z,600.00
2024-02-22T05:05:54.261Z,599.00
2024-02-22T05:06:54.273Z,598.00
2024-02-22T05:07:54.393Z,599.00
2024-02-22T05:08:54.466Z,601.00
2024-02-22T05:09:54.486Z,602.00
2024-02-22T05:10:54.631Z,601.00
2024-02-22T05:11:54.655Z,602.00
2024-02-22T05:12:54.648Z,602.00
2024-02-22T05:13:54.800Z,600.00
2024-02-22T05:14:54.737Z,598.00
2024-02-22T05:15:54.790Z,596.00
2024-02-22T05:16:54.927Z,595.00
2024-02-22T05:17:56.023Z,596.00
2024-02-22T05:18:55.086Z,594.00
2024-02-22T05:19:55.062Z,593.00
2024-02-22T05:20:55.092Z,595.00
2024-02-22T05:21:55.165Z,596.00
2024-02-22T05:22:55.281Z,595.00
2024-02-22T05:23:55.265Z,594.00
2024-02-22T05:24:55.306Z,593.00
2024-02-22T05:25:55.428Z,594.00
2024-02-22T05:26:55.457Z,593.00
2024-02-22T05:27:55.484Z,590.00
2024-02-22T05:28:55.612Z,586.00
2024-02-22T05:29:55.600Z,587.00
2024-02-22T05:30:55.650Z,586.00
2024-02-22T05:31:55.812Z,584.00
2024-02-22T05:32:55.833Z,582.00
2024-02-22T05:33:56.011Z,584.00
2024-02-22T05:34:55.920Z,584.00
2024-02-22T05:35:55.968Z,586.00
2024-02-22T05:36:56.053Z,586.00
2024-02-22T05:37:56.148Z,587.00
2024-02-22T05:38:56.159Z,588.00
2024-02-22T05:39:56.193Z,590.00
2024-02-22T05:40:56.304Z,590.00
2024-02-22T05:41:56.323Z,591.00
2024-02-22T05:42:56.374Z,594.00
2024-02-22T05:43:56.520Z,598.00
2024-02-22T05:44:56.509Z,599.00
2024-02-22T05:45:56.562Z,599.00
2024-02-22T05:46:56.689Z,598.00
2024-02-22T05:47:56.748Z,597.00
2024-02-22T05:48:56.814Z,596.00
2024-02-22T05:49:56.866Z,596.00
2024-02-22T05:50:57.720Z,593.00
2024-02-22T05:51:56.932Z,593.00
2024-02-22T05:52:56.994Z,593.00
2024-02-22T05:53:57.054Z,593.00
2024-02-22T05:54:57.093Z,594.00
2024-02-22T05:55:57.231Z,591.00
2024-02-22T05:56:57.214Z,592.00
2024-02-22T05:57:57.280Z,592.00
2024-02-22T05:58:57.341Z,595.00
2024-02-22T05:59:57.426Z,595.00
2024-02-22T06:00:57.475Z,594.00
2024-02-22T06:01:57.583Z,592.00
2024-02-22T06:02:57.715Z,593.00
2024-02-22T06:03:57.686Z,594.00
2024-02-22T06:04:57.906Z,595.00
2024-02-22T06:05:57.818Z,593.00
2024-02-22T06:06:57.815Z,592.00
2024-02-22T06:07:57.884Z,592.00
2024-02-22T06:08:57.947Z,589.00
2024-02-22T06:09:57.997Z,587.00
2024-02-22T06:10:58.126Z,586.00
2024-02-22T06:11:58.204Z,587.00
2024-02-22T06:12:58.180Z,588.00
2024-02-22T06:13:58.275Z,590.00
2024-02-22T06:14:58.274Z,590.00
2024-02-22T06:15:58.347Z,591.00
2024-02-22T06:16:58.801Z,590.00
2024-02-22T06:17:58.558Z,593.00
2024-02-22T06:18:58.533Z,593.00
2024-02-22T06:19:58.686Z,593.00
2024-02-22T06:20:58.651Z,593.00
2024-02-22T06:21:58.728Z,590.00
2024-02-22T06:22:58.782Z,592.00
2024-02-22T06:23:58.820Z,593.00
2024-02-22T06:24:58.959Z,593.00
2024-02-22T06:25:59.024Z,594.00
2024-02-22T06:26:59.068Z,594.00
2024-02-22T06:27:59.235Z,594.00
2024-02-22T06:28:59.164Z,596.00
2024-02-22T06:29:59.222Z,595.00
2024-02-22T06:30:59.271Z,595.00
2024-02-22T06:31:59.399Z,603.00
2024-02-22T06:32:59.440Z,615.00
2024-02-22T06:33:59.582Z,642.00
2024-02-22T06:35:00.275Z,642.00
2024-02-22T06:35:59.551Z,641.00
2024-02-22T06:36:59.612Z,646.00
2024-02-22T06:37:59.903Z,672.00
2024-02-22T06:38:59.768Z,706.00
2024-02-22T06:39:59.811Z,723.00
2024-02-22T06:40:59.984Z,746.00
2024-02-22T06:41:59.943Z,891.00
2024-02-22T06:43:00.041Z,894.00
2024-02-22T06:44:00.156Z,913.00
2024-02-22T06:45:01.094Z,944.00
2024-02-22T06:46:00.078Z,953.00
2024-02-22T06:47:00.167Z,1027.00
2024-02-22T06:48:00.308Z,1065.00
2024-02-22T06:49:00.120Z,1104.00
2024-02-22T06:50:00.217Z,1200.00
2024-02-22T06:51:00.213Z,1226.00
2024-02-22T06:52:00.107Z,1243.00
2024-02-22T06:53:00.154Z,1273.00
2024-02-22T06:54:00.152Z,1320.00
2024-02-22T06:55:00.142Z,1356.00
2024-02-22T06:56:00.260Z,1369.00
2024-02-22T06:57:00.124Z,1390.00
2024-02-22T06:58:00.119Z,1428.00
2024-02-22T06:59:00.184Z,1457.00
2024-02-22T07:00:00.247Z,1498.00
2024-02-22T07:01:00.150Z,1534.00
2024-02-22T07:02:00.145Z,1550.00
2024-02-22T07:03:02.830Z,1573.00
2024-02-22T07:04:00.238Z,1595.00
2024-02-22T07:05:00.170Z,1624.00
2024-02-22T07:06:00.119Z,1664.00
2024-02-22T07:07:00.160Z,1677.00
2024-02-22T07:08:00.275Z,1693.00
2024-02-22T07:09:00.166Z,1717.00
2024-02-22T07:10:00.191Z,1752.00
2024-02-22T07:11:00.217Z,1795.00
2024-02-22T07:12:00.192Z,1832.00
2024-02-22T07:13:00.192Z,1907.00
2024-02-22T07:14:00.268Z,1901.00
2024-02-22T07:15:00.141Z,1897.00
2024-02-22T07:16:00.170Z,1898.00
2024-02-22T07:17:00.257Z,1881.00
2024-02-22T07:18:00.299Z,1831.00
2024-02-22T07:19:00.220Z,1833.00
2024-02-22T07:20:00.271Z,1841.00
2024-02-22T07:21:00.128Z,1863.00
2024-02-22T07:22:00.171Z,1879.00
2024-02-22T07:23:00.185Z,1931.00
2024-02-22T07:24:00.212Z,1960.00
2024-02-22T07:25:00.202Z,1984.00
2024-02-22T07:26:00.194Z,2008.00
2024-02-22T07:27:00.313Z,2081.00
2024-02-22T07:28:00.317Z,2088.00
2024-02-22T07:29:02.329Z,2111.00
2024-02-22T07:30:00.508Z,2153.00
2024-02-22T07:31:00.507Z,2177.00
2024-02-22T07:32:00.619Z,2190.00
2024-02-22T07:33:00.715Z,2207.00
2024-02-22T07:34:00.873Z,2222.00
2024-02-22T07:35:00.782Z,2229.00
2024-02-22T07:36:00.808Z,2192.00
2024-02-22T07:37:00.870Z,2190.00
2024-02-22T07:38:00.989Z,2112.00
2024-02-22T07:39:00.994Z,2092.00
2024-02-22T07:40:01.098Z,2094.00
2024-02-22T07:41:01.136Z,2098.00
2024-02-22T07:42:01.765Z,2132.00
2024-02-22T07:43:01.240Z,2174.00
2024-02-22T07:44:01.388Z,2182.00
2024-02-22T07:45:01.331Z,2193.00
2024-02-22T07:46:01.530Z,2218.00
2024-02-22T07:47:01.890Z,2235.00
2024-02-22T07:48:01.691Z,2243.00
2024-02-22T07:49:01.658Z,2236.00
2024-02-22T07:50:01.838Z,2230.00
2024-02-22T07:51:01.748Z,2238.00
2024-02-22T07:52:01.751Z,2241.00
2024-02-22T07:53:01.856Z,2231.00
2024-02-22T07:54:01.885Z,2229.00
2024-02-22T07:55:01.913Z,2223.00
2024-02-22T07:56:02.029Z,2222.00
2024-02-22T07:57:02.050Z,2217.00
2024-02-22T07:58:02.134Z,2220.00
2024-02-22T07:59:02.212Z,2227.00
2024-02-22T08:00:02.325Z,2276.00
2024-02-22T08:01:02.362Z,2279.00
2024-02-22T08:02:02.448Z,2291.00
2024-02-22T08:03:02.472Z,2294.00
2024-02-22T08:04:02.597Z,2294.00
2024-02-22T08:05:02.788Z,2303.00
2024-02-22T08:06:02.570Z,2312.00
2024-02-22T08:07:02.691Z,2311.00
2024-02-22T08:08:02.747Z,2323.00
2024-02-22T08:09:02.752Z,2342.00
2024-02-22T08:10:02.843Z,2345.00
2024-02-22T08:11:02.908Z,2345.00
2024-02-22T08:12:03.004Z,2342.00
2024-02-22T08:13:02.966Z,2348.00
2024-02-22T08:14:03.079Z,2342.00
2024-02-22T08:15:03.072Z,2336.00
2024-02-22T08:16:03.139Z,2345.00
2024-02-22T08:17:03.229Z,2353.00
2024-02-22T08:18:03.280Z,2354.00
2024-02-22T08:19:03.324Z,2349.00
2024-02-22T08:20:03.449Z,2348.00
2024-02-22T08:21:03.520Z,2352.00
2024-02-22T08:22:03.766Z,2358.00
2024-02-22T08:23:03.861Z,2374.00
2024-02-22T08:24:03.628Z,2397.00
2024-02-22T08:25:03.689Z,2407.00
2024-02-22T08:26:03.847Z,2424.00
2024-02-22T08:27:03.751Z,2437.00
2024-02-22T08:28:07.489Z,2441.00
2024-02-22T08:29:03.928Z,2449.00
2024-02-22T08:30:03.799Z,2458.00
2024-02-22T08:31:03.824Z,2472.00
2024-02-22T08:32:04.344Z,2475.00
2024-02-22T08:33:03.983Z,2510.00
2024-02-22T08:34:04.414Z,2508.00
2024-02-22T08:35:03.917Z,2505.00
2024-02-22T08:36:03.830Z,2507.00
2024-02-22T08:37:03.824Z,2511.00
2024-02-22T08:38:03.908Z,2518.00
2024-02-22T08:39:04.291Z,2522.00
2024-02-22T08:40:15.515Z,2523.00
2024-02-22T08:41:04.897Z,2528.00
2024-02-22T08:42:03.820Z,2533.00
2024-02-22T08:43:03.878Z,2537.00
2024-02-22T08:44:03.888Z,2559.00
2024-02-22T08:45:03.841Z,2571.00
2024-02-22T08:46:03.804Z,2584.00
2024-02-22T08:47:04.378Z,2592.00
2024-02-22T08:48:04.270Z,2605.00
2024-02-22T08:49:04.312Z,2611.00
2024-02-22T08:50:03.942Z,2619.00
2024-02-22T08:51:03.863Z,2631.00
2024-02-22T08:52:03.888Z,2638.00
2024-02-22T08:53:04.164Z,2642.00
2024-02-22T08:54:04.289Z,2647.00
2024-02-22T08:55:04.070Z,2655.00
2024-02-22T08:56:04.175Z,2659.00
2024-02-22T08:57:04.841Z,2656.00
2024-02-22T08:58:04.289Z,2662.00
2024-02-22T08:59:04.820Z,2671.00
2024-02-22T09:00:04.369Z,2746.00
2024-02-22T09:01:04.464Z,2733.00
2024-02-22T09:02:04.537Z,2740.00
2024-02-22T09:03:04.550Z,2734.00
2024-02-22T09:04:04.709Z,2751.00
2024-02-22T09:05:04.776Z,2758.00
2024-02-22T09:06:04.771Z,2758.00
2024-02-22T09:07:04.838Z,2755.00
2024-02-22T09:08:04.956Z,2758.00
2024-02-22T09:09:04.888Z,2764.00
2024-02-22T09:10:04.946Z,2775.00
2024-02-22T09:11:05.128Z,2785.00
2024-02-22T09:12:05.142Z,2790.00
2024-02-22T09:13:05.120Z,2791.00
2024-02-22T09:14:05.187Z,2785.00
2024-02-22T09:15:05.245Z,2807.00
2024-02-22T09:16:05.278Z,2823.00
2024-02-22T09:17:05.418Z,2840.00
2024-02-22T09:18:05.578Z,2855.00
2024-02-22T09:19:05.470Z,2868.00
2024-02-22T09:20:05.576Z,2866.00
2024-02-22T09:21:05.547Z,2844.00
2024-02-22T09:22:05.595Z,2841.00
2024-02-22T09:23:05.664Z,2843.00
2024-02-22T09:24:05.651Z,2818.00
2024-02-22T09:25:05.706Z,2766.00
2024-02-22T09:26:05.796Z,2746.00
2024-02-22T09:27:05.746Z,2736.00
2024-02-22T09:28:05.764Z,2729.00
2024-02-22T09:29:06.364Z,2736.00
2024-02-22T09:30:05.920Z,2739.00
2024-02-22T09:31:05.852Z,2721.00
2024-02-22T09:32:06.329Z,2719.00
2024-02-22T09:33:06.736Z,2713.00
2024-02-22T09:34:06.162Z,2713.00
2024-02-22T09:35:06.105Z,2701.00
2024-02-22T09:36:06.203Z,2698.00
2024-02-22T09:37:06.123Z,2689.00
2024-02-22T09:38:06.502Z,2684.00
2024-02-22T09:39:06.153Z,2681.00
2024-02-22T09:40:06.250Z,2692.00
2024-02-22T09:41:06.287Z,2676.00
2024-02-22T09:42:06.314Z,2612.00
2024-02-22T09:43:06.369Z,2596.00
2024-02-22T09:44:06.528Z,2596.00
2024-02-22T09:45:06.497Z,2605.00
2024-02-22T09:46:06.518Z,2662.00
2024-02-22T09:47:06.843Z,2691.00
2024-02-22T09:48:06.616Z,2691.00
2024-02-22T09:49:08.403Z,2745.00
2024-02-22T09:50:06.629Z,2761.00
2024-02-22T09:51:06.579Z,2792.00
2024-02-22T09:52:06.701Z,2836.00
2024-02-22T09:53:06.677Z,2836.00
2024-02-22T09:54:06.712Z,2846.00
2024-02-22T09:55:06.729Z,2861.00
2024-02-22T09:56:06.880Z,2871.00
2024-02-22T09:57:06.861Z,2880.00
2024-02-22T09:58:06.837Z,2884.00
2024-02-22T09:59:06.915Z,2883.00
2024-02-22T10:00:06.901Z,2882.00
2024-02-22T10:01:07.008Z,2882.00
2024-02-22T10:02:07.029Z,2882.00
2024-02-22T10:03:07.093Z,2897.00
2024-02-22T10:04:07.104Z,2927.00
2024-02-22T10:05:07.424Z,2948.00
2024-02-22T10:06:07.287Z,2964.00
2024-02-22T10:07:07.344Z,2968.00
2024-02-22T10:08:07.356Z,2980.00
2024-02-22T10:09:07.303Z,2991.00
2024-02-22T10:10:07.311Z,3008.00
2024-02-22T10:11:07.482Z,3028.00
2024-02-22T10:12:07.724Z,3048.00
2024-02-22T10:13:08.462Z,3064.00
2024-02-22T10:14:07.451Z,3072.00
2024-02-22T10:15:09.150Z,3080.00
2024-02-22T10:16:07.377Z,3079.00
2024-02-22T10:17:07.426Z,3082.00
2024-02-22T10:18:07.486Z,3080.00
2024-02-22T10:19:07.496Z,3081.00
2024-02-22T10:20:07.490Z,3087.00
2024-02-22T10:21:07.524Z,3095.00
2024-02-22T10:22:07.531Z,3102.00
2024-02-22T10:23:07.603Z,3116.00
2024-02-22T10:24:07.545Z,3131.00
2024-02-22T10:25:07.576Z,3145.00
2024-02-22T10:26:07.613Z,3160.00
2024-02-22T10:27:09.194Z,3302.00
2024-02-22T10:28:07.643Z,3234.00
2024-02-22T10:29:07.731Z,3232.00
2024-02-22T10:30:07.693Z,3238.00
2024-02-22T10:31:07.700Z,3236.00
2024-02-22T10:32:07.891Z,3236.00
2024-02-22T10:33:07.857Z,3235.00
2024-02-22T10:34:07.904Z,3246.00
2024-02-22T10:35:07.846Z,3238.00
2024-02-22T10:36:07.829Z,3224.00
2024-02-22T10:37:08.337Z,3202.00
2024-02-22T10:38:07.918Z,3177.00
2024-02-22T10:39:07.921Z,3100.00
2024-02-22T10:40:07.951Z,3085.00
2024-02-22T10:41:08.139Z,3065.00
2024-02-22T10:42:08.334Z,3056.00
2024-02-22T10:43:08.102Z,3034.00
2024-02-22T10:44:08.257Z,3023.00
2024-02-22T10:45:08.225Z,3021.00
2024-02-22T10:46:08.318Z,3021.00
2024-02-22T10:47:08.360Z,3012.00
2024-02-22T10:48:08.513Z,3011.00
2024-02-22T10:49:08.611Z,3012.00
2024-02-22T10:50:08.739Z,3005.00
2024-02-22T10:51:08.557Z,3004.00
2024-02-22T10:52:08.631Z,2995.00
2024-02-22T10:53:08.667Z,2992.00
2024-02-22T10:54:08.700Z,2988.00
2024-02-22T10:55:08.792Z,2981.00
2024-02-22T10:56:08.915Z,2972.00
2024-02-22T10:57:08.889Z,2962.00
2024-02-22T10:58:08.952Z,2954.00
2024-02-22T10:59:09.072Z,2950.00
2024-02-22T11:00:09.102Z,2952.00
2024-02-22T11:01:09.146Z,2950.00
2024-02-22T11:02:09.257Z,2941.00
2024-02-22T11:03:09.208Z,2929.00
2024-02-22T11:04:09.288Z,2922.00
2024-02-22T11:05:09.361Z,2912.00
2024-02-22T11:06:09.501Z,2901.00
2024-02-22T11:07:09.550Z,2892.00
2024-02-22T11:08:09.522Z,2887.00
2024-02-22T11:09:09.569Z,2878.00
2024-02-22T11:10:09.618Z,2870.00
2024-02-22T11:11:09.886Z,2858.00
2024-02-22T11:12:09.741Z,2857.00
2024-02-22T11:13:09.808Z,2846.00
2024-02-22T11:14:09.941Z,2837.00
2024-02-22T11:15:09.929Z,2830.00
2024-02-22T11:16:09.970Z,2823.00
2024-02-22T11:17:10.072Z,2810.00
2024-02-22T11:18:10.195Z,2802.00
2024-02-22T11:19:10.384Z,2795.00
2024-02-22T11:20:10.270Z,2781.00
2024-02-22T11:21:10.275Z,2772.00
2024-02-22T11:22:10.351Z,2751.00
2024-02-22T11:23:10.518Z,2748.00
2024-02-22T11:24:10.536Z,2740.00
2024-02-22T11:25:10.524Z,2743.00
2024-02-22T11:26:10.661Z,2740.00
2024-02-22T11:27:10.668Z,2753.00
2024-02-22T11:28:10.973Z,2758.00
2024-02-22T11:29:10.885Z,2756.00
2024-02-22T11:30:10.813Z,2364.00
2024-02-22T11:31:10.876Z,2656.00
2024-02-22T11:32:10.956Z,2127.00
2024-02-22T11:33:11.450Z,1447.00
2024-02-22T11:34:11.080Z,1250.00
2024-02-22T11:35:11.169Z,1117.00
2024-02-22T11:36:11.151Z,1034.00
2024-02-22T11:37:11.177Z,1204.00
2024-02-22T11:38:11.292Z,1221.00
2024-02-22T11:39:11.331Z,1061.00
2024-02-22T11:40:11.405Z,1153.00
2024-02-22T11:41:11.457Z,1192.00
2024-02-22T11:42:11.470Z,1217.00
2024-02-22T11:43:11.878Z,1189.00
2024-02-22T11:44:11.576Z,1157.00
2024-02-22T11:45:11.592Z,1168.00
2024-02-22T11:46:11.636Z,938.00
2024-02-22T11:47:11.740Z,1056.00
2024-02-22T11:48:12.024Z,1066.00
2024-02-22T11:49:11.876Z,1083.00
2024-02-22T11:50:11.852Z,1152.00
2024-02-22T11:51:14.139Z,865.00
2024-02-22T11:52:12.362Z,975.00
2024-02-22T11:53:11.904Z,856.00
2024-02-22T11:54:11.871Z,865.00
2024-02-22T11:55:11.867Z,966.00
2024-02-22T11:56:11.910Z,1029.00
2024-02-22T11:57:14.929Z,996.00
2024-02-22T11:58:11.868Z,931.00
2024-02-22T11:59:11.950Z,1048.00
2024-02-22T12:00:11.908Z,925.00
2024-02-22T12:01:11.899Z,1068.00
2024-02-22T12:02:11.942Z,1052.00
2024-02-22T12:03:14.987Z,1050.00
2024-02-22T12:04:11.908Z,1077.00
2024-02-22T12:05:12.073Z,1090.00
2024-02-22T12:06:12.052Z,1114.00
2024-02-22T12:07:11.915Z,1126.00
2024-02-22T12:08:11.891Z,1062.00
2024-02-22T12:09:14.867Z,1083.00
2024-02-22T12:10:11.885Z,1091.00
2024-02-22T12:11:11.961Z,1126.00
2024-02-22T12:12:12.018Z,1139.00
2024-02-22T12:13:11.900Z,1154.00
2024-02-22T12:14:11.948Z,1131.00
2024-02-22T12:15:15.486Z,1140.00
2024-02-22T12:16:12.204Z,1128.00
2024-02-22T12:17:12.281Z,1174.00
2024-02-22T12:18:11.937Z,1216.00
2024-02-22T12:19:11.936Z,1235.00